Nearby METAR Reports

 

KSJC - San Jose, California, USA
Distance from station: NØ 14km
Oppdatert: 09/04/2020 21:53
Overskyet
Overskyet
 Vind fra calm
Vind: Stille
Temperatur: 15°C
Duggpunkt: 8°C
Fuktighet: 63%
Barometer: 1016.9 hPa
Clouds: Overskyet
Visibility: 16 km
Cloud details: Few Clouds 396 m
Hovedsaklig skyet 914 m
Overskyet 1524 m
2020/04/09 19:53 KSJC 091953Z 00000KT 10SM FEW013 BKN030 OVC050 15/08 A3003 RMK AO2 SLP168 T01500083
KNUQ - Moffett Nas/Mtn, California, USA
Distance from station: N 14km
Oppdatert: 21/11/2019 17:56
NOT Current

 
Barometer: 1011.2 hPa
2019/11/21 16:56 KNUQ 211656Z AUTO A2986 RMK AO2 SLP116 PWINO $
 
KPAO - Palo Alto, California, USA
Distance from station: NNV 23km
Oppdatert: 09/04/2020 22:25
Delvis skyet
Delvis skyet
 Vind fra NØ
Vind: NØ 9 km/h
Temperatur: 16°C
Duggpunkt: 10°C
Fuktighet: 68%
Barometer: 1016.9 hPa
Clouds: Delvis skyet
Visibility: 16 km
Cloud details: Delvis skyet 762 m
Delvis skyet 6096 m
2020/04/09 20:25 KPAO 092025Z 04005KT 10SM SCT025 SCT200 16/10 A3003
KRHV - San Jose/Reid, California, USA
Distance from station: ØNØ 19km
Oppdatert: 09/04/2020 22:30
Overskyet
Overskyet
 Vind fra calm
Vind: Stille
Temperatur: 16°C
Duggpunkt: 9°C
Fuktighet: 63%
Barometer: 1016.9 hPa
Clouds: Overskyet
Visibility: 16 km
Cloud details: Hovedsaklig skyet 1067 m
Overskyet 1524 m
2020/04/09 20:30 KRHV 092030Z 00000KT 10SM BKN035 OVC050 16/09 A3003
 
KOAK - Oakland, California, USA
Distance from station: NNV 50km
Oppdatert: 09/04/2020 21:53
Overskyet
Overskyet
 Vind fra SV
Vind: SV 11 km/h
Temperatur: 16°C
Duggpunkt: 10°C
Fuktighet: 68%
Barometer: 1017.3 hPa
Clouds: Overskyet
Visibility: 16 km
Cloud details: Delvis skyet 823 m
Overskyet 975 m
2020/04/09 19:53 KOAK 091953Z 23006KT 10SM SCT027 OVC032 16/10 A3004 RMK AO2 SLP173 T01610100
KSQL - San Carlos Airpo, California, USA
Distance from station: NV 34km
Oppdatert: 09/04/2020 21:47
Hovedsaklig skyet
Hovedsaklig skyet
 Vind fra ØNØ
Vind: ØNØ 9 km/h
Temperatur: 15°C
Duggpunkt: 10°C
Fuktighet: 72%
Barometer: 1017.6 hPa
Clouds: Hovedsaklig skyet
Visibility: 16 km
Cloud details: Hovedsaklig skyet 1341 m
2020/04/09 19:47 KSQL 091947Z 07005KT 10SM BKN044 15/10 A3005
 
KSFO - San Francisco, California, USA
Distance from station: NV 49km
Oppdatert: 09/04/2020 22:39
Hovedsaklig skyet
Hovedsaklig skyet
 Vind fra ØNØ
Vind: ØNØ 9 km/h
Temperatur: 16°C
Duggpunkt: 10°C
Fuktighet: 68%
Barometer: 1016.9 hPa
Clouds: Hovedsaklig skyet
Visibility: 16 km
Cloud details: Few Clouds 762 m
Hovedsaklig skyet 1311 m
Hovedsaklig skyet 4877 m
2020/04/09 20:39 KSFO 092039Z 06005KT 10SM FEW025 BKN043 BKN160 16/10 A3003 RMK AO2 T01610100
KE16 - San Martin, California, USA
Distance from station: ØSØ 43km
Oppdatert: 14/11/2019 10:35
NOT Current
Overskyet
Overskyet
 Vind fra SØ
Vind: SØ 11 km/h
Temperatur: 12°C
Duggpunkt: 10°C
Fuktighet: 88%
Barometer: 1017.6 hPa
Clouds: Overskyet
Visibility: 16 km
Cloud details: Overskyet 427 m
2019/11/14 09:35 KE16 140935Z AUTO 13006KT 10SM OVC014 12/10 A3005 RMK AO2
 
KWVI - Watsonville, California, USA
Distance from station: SSØ 44km
Oppdatert: 09/04/2020 21:53
Overskyet
Overskyet
 Vind fra SØ
Vind: SØ 7 km/h
Temperatur: 16°C
Duggpunkt: 11°C
Fuktighet: 72%
Barometer: 1017.3 hPa
Clouds: Overskyet
Visibility: 16 km
Cloud details: Hovedsaklig skyet 610 m
Hovedsaklig skyet 1402 m
Overskyet 1829 m
2020/04/09 19:53 KWVI 091953Z AUTO 13004KT 10SM BKN020 BKN046 OVC060 16/11 A3004 RMK AO2 SLP170 T01560106
KHAF - Half Moon Bay, California, USA
Distance from station: VNV 50km
Oppdatert: 09/04/2020 22:35
Overskyet
Overskyet
 Vind fra SV
Vind: SV 9 km/h
Temperatur: 13°C
Duggpunkt: 10°C
Fuktighet: 82%
Barometer: 1017.6 hPa
Clouds: Overskyet
Visibility: 16 km
Cloud details: Hovedsaklig skyet 762 m
Hovedsaklig skyet 914 m
Overskyet 1158 m
2020/04/09 20:35 KHAF 092035Z AUTO 23005KT 10SM BKN025 BKN030 OVC038 13/10 A3005 RMK AO2
 
KHWD - Hayward, California, USA
Distance from station: N 44km
Oppdatert: 09/04/2020 22:01
Overskyet
Overskyet
 Vind fra NØ
Vind: NØ 19 km/h
Temperatur: 16°C
Duggpunkt: 9°C
Fuktighet: 63%
Barometer: 1016.9 hPa
Clouds: Overskyet
Visibility: 16 km
Cloud details: Few Clouds 853 m
Overskyet 1036 m
2020/04/09 20:01 KHWD 092001Z 05010KT 10SM FEW028 OVC034 16/09 A3003 RMK AO2 T01560089
KLVK - Livermore, California, USA
Distance from station: NNØ 51km
Oppdatert: 09/04/2020 22:41
Overskyet
Overskyet
 Vind fra NØ
Vind: NØ 17 km/h
Temperatur: 15°C
Duggpunkt: 9°C
Fuktighet: 68%
Barometer: 1016.9 hPa
Clouds: Overskyet
Visibility: 16 km
Cloud details: Delvis skyet 579 m
Overskyet 945 m
2020/04/09 20:41 KLVK 092041Z 04009KT 10SM SCT019 OVC031 15/09 A3003 RMK AO2 T01500094